Huvudsida
METAR-TAF:

METAR-TAF

Flygplatser :

Xi'an, Kina

Xi'an Xianyang International Airport

latitud: 34-26N, longitud: 108-45E, höjd: 479 m

Aktuellt väderrapport

Denna rapport gjordes för 1 timme och 5 minuter sedan, klockan 00:00 UTC
Vind 6 kt från syd/sydväst
Temperatur 13°C
Fuktighet 94%
Tryck 1020 hPa
Sikt: 3000 m
Mulet på en höjd av 6000 ft
fuktdis

METAR: ZLXY 250000Z 21003MPS 3000 BR OVC060 13/12 Q1020 NOSIG

Tid: 09:05 (01:05 UTC)

Väderprognos

Denna rapport gjordes för 5 timmar och 42 minuter sedan, klockan 19:23 UTC
Prognos gäller från 25 kl. 00 UTC till 25 kl. 24 UTC
Vind 6 kt från väst/sydväst
Sikt: 3000 m
Mulet på en höjd av 6000 ft
lätt regn, fuktdis
Blir
från 25 kl. 02 UTC till 25 kl. 03 UTC
Sikt: 2800 m
lätt regn, fuktdis
Blir
från 25 kl. 03 UTC till 25 kl. 04 UTC
Sikt: 3000 m
fuktdis

TAF: ZLXY 241923Z 2500/2524 24003MPS 3000 -RA BR OVC060 TX20/2509Z TN10/2522Z BECMG 2502/2503 2800 -RA BR BECMG 2503/2504 3000 BR

Aktuella väderrapporter och prognoser från 4000 flygplatser (METAR- och TAF-rapporter).

De tillgängliga stationerna syns som gula och röda prickar på kartan.

För musen över prickarna för att se namnen på stationerna.

Klicka sedan för att få väderrapporter och prognoser.

För att ändra kartan: Klicka på de gröna knapparna med ett svart kors på för att zooma in; den gröna knappen med ett streck på för att zooma ut; eller på de gröna pilarna för angränsande kartor.


METAR-TAF: